sensor_id;sensor_type;location;lat;lon;timestamp;temperature;humidity
76577;DHT22;65441;44.748;37.600;2023-02-12T00:00:13;0.25;73.56
76577;DHT22;65441;44.748;37.600;2023-02-12T00:02:43;0.22;72.45
76577;DHT22;65441;44.748;37.600;2023-02-12T00:05:12;0.35;73.60
76577;DHT22;65441;44.748;37.600;2023-02-12T00:07:44;0.58;74.33
76577;DHT22;65441;44.748;37.600;2023-02-12T00:10:13;0.73;75.15
76577;DHT22;65441;44.748;37.600;2023-02-12T00:12:46;0.72;74.76
76577;DHT22;65441;44.748;37.600;2023-02-12T00:15:15;0.86;73.65
76577;DHT22;65441;44.748;37.600;2023-02-12T00:17:44;0.81;73.19
76577;DHT22;65441;44.748;37.600;2023-02-12T00:20:13;0.88;73.81
76577;DHT22;65441;44.748;37.600;2023-02-12T00:22:44;0.83;75.02
76577;DHT22;65441;44.748;37.600;2023-02-12T00:25:13;0.98;74.83
76577;DHT22;65441;44.748;37.600;2023-02-12T00:27:42;0.91;74.55
76577;DHT22;65441;44.748;37.600;2023-02-12T00:30:12;0.98;74.80
76577;DHT22;65441;44.748;37.600;2023-02-12T00:32:41;0.99;75.16
76577;DHT22;65441;44.748;37.600;2023-02-12T00:35:11;0.90;74.73
76577;DHT22;65441;44.748;37.600;2023-02-12T00:37:43;0.72;75.49
76577;DHT22;65441;44.748;37.600;2023-02-12T00:40:20;0.81;75.98
76577;DHT22;65441;44.748;37.600;2023-02-12T00:42:49;0.84;76.47
76577;DHT22;65441;44.748;37.600;2023-02-12T00:45:19;0.86;76.27
76577;DHT22;65441;44.748;37.600;2023-02-12T00:47:49;0.86;76.67
76577;DHT22;65441;44.748;37.600;2023-02-12T00:50:18;0.90;77.22
76577;DHT22;65441;44.748;37.600;2023-02-12T00:52:48;0.92;77.89
76577;DHT22;65441;44.748;37.600;2023-02-12T00:55:17;0.80;78.49
76577;DHT22;65441;44.748;37.600;2023-02-12T00:57:47;0.69;78.78
76577;DHT22;65441;44.748;37.600;2023-02-12T01:00:16;0.75;79.55
76577;DHT22;65441;44.748;37.600;2023-02-12T01:02:47;0.96;78.14
76577;DHT22;65441;44.748;37.600;2023-02-12T01:05:16;1.06;77.82
76577;DHT22;65441;44.748;37.600;2023-02-12T01:10:52;1.13;78.01
76577;DHT22;65441;44.748;37.600;2023-02-12T01:13:23;1.09;78.85
76577;DHT22;65441;44.748;37.600;2023-02-12T01:16:21;1.13;78.52
76577;DHT22;65441;44.748;37.600;2023-02-12T01:18:54;1.25;78.25
76577;DHT22;65441;44.748;37.600;2023-02-12T01:21:24;1.25;78.43
76577;DHT22;65441;44.748;37.600;2023-02-12T01:23:57;1.05;79.12
76577;DHT22;65441;44.748;37.600;2023-02-12T01:26:34;1.07;78.67
76577;DHT22;65441;44.748;37.600;2023-02-12T01:29:05;1.11;78.75
76577;DHT22;65441;44.748;37.600;2023-02-12T01:31:37;1.03;78.68
76577;DHT22;65441;44.748;37.600;2023-02-12T01:34:08;0.99;79.50
76577;DHT22;65441;44.748;37.600;2023-02-12T01:36:39;0.96;79.68
76577;DHT22;65441;44.748;37.600;2023-02-12T01:39:10;1.20;79.04
76577;DHT22;65441;44.748;37.600;2023-02-12T01:41:43;1.32;78.63
76577;DHT22;65441;44.748;37.600;2023-02-12T01:44:18;1.29;78.50
76577;DHT22;65441;44.748;37.600;2023-02-12T01:46:54;1.27;78.98
76577;DHT22;65441;44.748;37.600;2023-02-12T01:49:26;1.22;78.41
76577;DHT22;65441;44.748;37.600;2023-02-12T01:52:01;1.33;78.17
76577;DHT22;65441;44.748;37.600;2023-02-12T01:54:33;1.41;78.66
76577;DHT22;65441;44.748;37.600;2023-02-12T01:57:04;1.42;78.13
76577;DHT22;65441;44.748;37.600;2023-02-12T01:59:35;1.35;78.65
76577;DHT22;65441;44.748;37.600;2023-02-12T02:02:11;1.43;78.40
76577;DHT22;65441;44.748;37.600;2023-02-12T02:04:45;1.47;78.59
76577;DHT22;65441;44.748;37.600;2023-02-12T02:07:15;1.47;78.51
76577;DHT22;65441;44.748;37.600;2023-02-12T02:09:47;1.53;77.67
76577;DHT22;65441;44.748;37.600;2023-02-12T02:12:16;1.50;78.69
76577;DHT22;65441;44.748;37.600;2023-02-12T02:15:02;1.43;78.64
76577;DHT22;65441;44.748;37.600;2023-02-12T02:17:44;1.31;78.64
76577;DHT22;65441;44.748;37.600;2023-02-12T02:20:48;1.39;79.07
76577;DHT22;65441;44.748;37.600;2023-02-12T02:23:38;1.27;77.93
76577;DHT22;65441;44.748;37.600;2023-02-12T02:32:49;0.94;77.39
76577;DHT22;65441;44.748;37.600;2023-02-12T02:35:27;0.83;77.63
76577;DHT22;65441;44.748;37.600;2023-02-12T02:38:07;0.72;77.53
76577;DHT22;65441;44.748;37.600;2023-02-12T02:40:45;0.50;76.98
76577;DHT22;65441;44.748;37.600;2023-02-12T02:43:20;0.44;78.28
76577;DHT22;65441;44.748;37.600;2023-02-12T02:45:52;0.30;79.15
76577;DHT22;65441;44.748;37.600;2023-02-12T02:48:27;0.29;79.33
76577;DHT22;65441;44.748;37.600;2023-02-12T02:51:02;0.31;78.78
76577;DHT22;65441;44.748;37.600;2023-02-12T02:53:35;0.23;78.67
76577;DHT22;65441;44.748;37.600;2023-02-12T02:56:07;0.36;79.04
76577;DHT22;65441;44.748;37.600;2023-02-12T02:58:52;0.38;78.61
76577;DHT22;65441;44.748;37.600;2023-02-12T03:01:27;0.35;79.37
76577;DHT22;65441;44.748;37.600;2023-02-12T03:04:02;0.31;80.07
76577;DHT22;65441;44.748;37.600;2023-02-12T03:06:36;0.03;81.57
76577;DHT22;65441;44.748;37.600;2023-02-12T03:09:14;0.17;81.54
76577;DHT22;65441;44.748;37.600;2023-02-12T03:11:45;0.24;81.60
76577;DHT22;65441;44.748;37.600;2023-02-12T03:14:52;0.19;81.72
76577;DHT22;65441;44.748;37.600;2023-02-12T03:17:16;0.25;81.39
76577;DHT22;65441;44.748;37.600;2023-02-12T03:19:50;0.44;81.10
76577;DHT22;65441;44.748;37.600;2023-02-12T03:22:24;0.66;80.19
76577;DHT22;65441;44.748;37.600;2023-02-12T03:24:59;0.71;80.91
76577;DHT22;65441;44.748;37.600;2023-02-12T03:27:33;0.68;81.10
76577;DHT22;65441;44.748;37.600;2023-02-12T03:30:07;0.91;79.46
76577;DHT22;65441;44.748;37.600;2023-02-12T03:32:43;1.19;78.21
76577;DHT22;65441;44.748;37.600;2023-02-12T03:35:20;1.38;78.15
76577;DHT22;65441;44.748;37.600;2023-02-12T03:38:02;1.76;76.13
76577;DHT22;65441;44.748;37.600;2023-02-12T03:40:39;1.92;75.32
76577;DHT22;65441;44.748;37.600;2023-02-12T03:46:02;2.25;74.61
76577;DHT22;65441;44.748;37.600;2023-02-12T03:48:43;2.24;75.44
76577;DHT22;65441;44.748;37.600;2023-02-12T03:51:19;2.35;74.00
76577;DHT22;65441;44.748;37.600;2023-02-12T03:53:57;2.45;73.35
76577;DHT22;65441;44.748;37.600;2023-02-12T03:56:34;2.56;72.90
76577;DHT22;65441;44.748;37.600;2023-02-12T03:59:05;2.47;73.80
76577;DHT22;65441;44.748;37.600;2023-02-12T04:01:37;2.62;72.10
76577;DHT22;65441;44.748;37.600;2023-02-12T04:04:10;2.68;70.81
76577;DHT22;65441;44.748;37.600;2023-02-12T04:06:43;2.80;70.39
76577;DHT22;65441;44.748;37.600;2023-02-12T04:09:14;2.99;69.15
76577;DHT22;65441;44.748;37.600;2023-02-12T04:11:57;3.05;68.36
76577;DHT22;65441;44.748;37.600;2023-02-12T04:17:25;3.16;69.46
76577;DHT22;65441;44.748;37.600;2023-02-12T04:20:10;3.23;68.97
76577;DHT22;65441;44.748;37.600;2023-02-12T04:22:54;3.31;68.11
76577;DHT22;65441;44.748;37.600;2023-02-12T04:25:39;3.42;66.44
76577;DHT22;65441;44.748;37.600;2023-02-12T04:28:16;3.47;65.72
76577;DHT22;65441;44.748;37.600;2023-02-12T04:30:56;3.48;67.86
76577;DHT22;65441;44.748;37.600;2023-02-12T04:33:36;3.53;66.23
76577;DHT22;65441;44.748;37.600;2023-02-12T04:36:11;3.53;65.86
76577;DHT22;65441;44.748;37.600;2023-02-12T04:38:47;3.58;64.52
76577;DHT22;65441;44.748;37.600;2023-02-12T04:41:21;3.59;65.63
76577;DHT22;65441;44.748;37.600;2023-02-12T04:43:54;3.61;65.62
76577;DHT22;65441;44.748;37.600;2023-02-12T04:46:23;3.65;64.50
76577;DHT22;65441;44.748;37.600;2023-02-12T04:48:55;3.70;65.36
76577;DHT22;65441;44.748;37.600;2023-02-12T04:51:26;3.72;64.72
76577;DHT22;65441;44.748;37.600;2023-02-12T04:53:57;3.78;65.78
76577;DHT22;65441;44.748;37.600;2023-02-12T04:56:26;3.79;66.30
76577;DHT22;65441;44.748;37.600;2023-02-12T04:58:55;3.84;66.05
76577;DHT22;65441;44.748;37.600;2023-02-12T05:01:24;3.84;65.69
76577;DHT22;65441;44.748;37.600;2023-02-12T05:03:55;3.88;64.82
76577;DHT22;65441;44.748;37.600;2023-02-12T05:06:23;3.90;63.86
76577;DHT22;65441;44.748;37.600;2023-02-12T05:08:53;3.90;64.86
76577;DHT22;65441;44.748;37.600;2023-02-12T05:11:23;3.92;64.10
76577;DHT22;65441;44.748;37.600;2023-02-12T05:13:52;3.94;63.53
76577;DHT22;65441;44.748;37.600;2023-02-12T05:16:23;3.97;64.08
76577;DHT22;65441;44.748;37.600;2023-02-12T05:18:54;3.99;62.88
76577;DHT22;65441;44.748;37.600;2023-02-12T05:21:23;4.01;62.43
76577;DHT22;65441;44.748;37.600;2023-02-12T05:23:51;4.04;63.02
76577;DHT22;65441;44.748;37.600;2023-02-12T05:26:23;4.02;62.94
76577;DHT22;65441;44.748;37.600;2023-02-12T05:28:54;4.06;63.18
76577;DHT22;65441;44.748;37.600;2023-02-12T05:31:23;4.09;63.47
76577;DHT22;65441;44.748;37.600;2023-02-12T05:33:54;4.09;62.85
76577;DHT22;65441;44.748;37.600;2023-02-12T05:36:27;4.10;60.98
76577;DHT22;65441;44.748;37.600;2023-02-12T05:38:57;4.15;62.05
76577;DHT22;65441;44.748;37.600;2023-02-12T05:41:28;4.17;63.04
76577;DHT22;65441;44.748;37.600;2023-02-12T05:44:03;4.18;61.63
76577;DHT22;65441;44.748;37.600;2023-02-12T05:46:37;4.21;62.03
76577;DHT22;65441;44.748;37.600;2023-02-12T05:49:10;4.22;61.65
76577;DHT22;65441;44.748;37.600;2023-02-12T05:51:41;4.29;60.25
76577;DHT22;65441;44.748;37.600;2023-02-12T05:54:12;4.35;61.19
76577;DHT22;65441;44.748;37.600;2023-02-12T05:56:47;4.41;58.96
76577;DHT22;65441;44.748;37.600;2023-02-12T05:59:18;4.51;58.40
76577;DHT22;65441;44.748;37.600;2023-02-12T06:01:49;4.52;58.13
76577;DHT22;65441;44.748;37.600;2023-02-12T06:04:21;4.59;58.79
76577;DHT22;65441;44.748;37.600;2023-02-12T06:06:56;4.59;59.13
76577;DHT22;65441;44.748;37.600;2023-02-12T06:09:32;4.60;59.33
76577;DHT22;65441;44.748;37.600;2023-02-12T06:12:10;4.56;59.27
76577;DHT22;65441;44.748;37.600;2023-02-12T06:14:44;4.51;60.89
76577;DHT22;65441;44.748;37.600;2023-02-12T06:17:15;4.50;62.19
76577;DHT22;65441;44.748;37.600;2023-02-12T06:19:49;4.47;61.56
76577;DHT22;65441;44.748;37.600;2023-02-12T06:22:21;4.45;61.60
76577;DHT22;65441;44.748;37.600;2023-02-12T06:24:53;4.45;60.89
76577;DHT22;65441;44.748;37.600;2023-02-12T06:27:27;4.46;60.02
76577;DHT22;65441;44.748;37.600;2023-02-12T06:29:57;4.51;60.02
76577;DHT22;65441;44.748;37.600;2023-02-12T06:32:26;4.57;59.86
76577;DHT22;65441;44.748;37.600;2023-02-12T06:34:55;4.53;59.93
76577;DHT22;65441;44.748;37.600;2023-02-12T06:37:27;4.53;57.74
76577;DHT22;65441;44.748;37.600;2023-02-12T06:39:58;4.57;58.71
76577;DHT22;65441;44.748;37.600;2023-02-12T06:42:29;4.58;55.47
76577;DHT22;65441;44.748;37.600;2023-02-12T06:44:58;4.63;55.10
76577;DHT22;65441;44.748;37.600;2023-02-12T06:47:27;4.71;54.26
76577;DHT22;65441;44.748;37.600;2023-02-12T06:49:56;4.73;52.20
76577;DHT22;65441;44.748;37.600;2023-02-12T06:52:27;4.74;53.67
76577;DHT22;65441;44.748;37.600;2023-02-12T06:54:56;4.80;54.72
76577;DHT22;65441;44.748;37.600;2023-02-12T06:57:27;4.81;53.15
76577;DHT22;65441;44.748;37.600;2023-02-12T06:59:58;4.82;54.23
76577;DHT22;65441;44.748;37.600;2023-02-12T07:02:27;4.81;53.10
76577;DHT22;65441;44.748;37.600;2023-02-12T07:04:56;4.84;53.30
76577;DHT22;65441;44.748;37.600;2023-02-12T07:07:25;4.91;53.62
76577;DHT22;65441;44.748;37.600;2023-02-12T07:09:56;5.00;54.30
76577;DHT22;65441;44.748;37.600;2023-02-12T07:12:25;5.10;52.55
76577;DHT22;65441;44.748;37.600;2023-02-12T07:14:57;5.17;53.64
76577;DHT22;65441;44.748;37.600;2023-02-12T07:17:28;5.19;53.33
76577;DHT22;65441;44.748;37.600;2023-02-12T07:19:57;5.23;54.17
76577;DHT22;65441;44.748;37.600;2023-02-12T07:22:28;5.26;54.78
76577;DHT22;65441;44.748;37.600;2023-02-12T07:24:57;5.24;56.25
76577;DHT22;65441;44.748;37.600;2023-02-12T07:27:28;5.26;55.87
76577;DHT22;65441;44.748;37.600;2023-02-12T07:29:59;5.23;56.60
76577;DHT22;65441;44.748;37.600;2023-02-12T07:32:28;5.20;57.56
76577;DHT22;65441;44.748;37.600;2023-02-12T07:34:59;5.12;59.34
76577;DHT22;65441;44.748;37.600;2023-02-12T07:37:28;5.03;61.14
76577;DHT22;65441;44.748;37.600;2023-02-12T07:39:57;4.97;62.86
76577;DHT22;65441;44.748;37.600;2023-02-12T07:42:26;4.98;63.66
76577;DHT22;65441;44.748;37.600;2023-02-12T07:44:56;4.96;64.65
76577;DHT22;65441;44.748;37.600;2023-02-12T07:47:27;4.96;66.04
76577;DHT22;65441;44.748;37.600;2023-02-12T07:49:59;4.94;67.36
76577;DHT22;65441;44.748;37.600;2023-02-12T07:52:29;4.96;67.23
76577;DHT22;65441;44.748;37.600;2023-02-12T07:55:00;4.97;66.91
76577;DHT22;65441;44.748;37.600;2023-02-12T07:57:30;4.95;64.63
76577;DHT22;65441;44.748;37.600;2023-02-12T08:00:00;5.00;62.73
76577;DHT22;65441;44.748;37.600;2023-02-12T08:02:30;5.16;62.27
76577;DHT22;65441;44.748;37.600;2023-02-12T08:04:59;5.28;61.49
76577;DHT22;65441;44.748;37.600;2023-02-12T08:07:28;5.31;56.72
76577;DHT22;65441;44.748;37.600;2023-02-12T08:10:12;5.45;55.75
76577;DHT22;65441;44.748;37.600;2023-02-12T08:12:43;5.60;56.05
76577;DHT22;65441;44.748;37.600;2023-02-12T08:15:13;5.68;54.49
76577;DHT22;65441;44.748;37.600;2023-02-12T08:17:45;5.75;54.87
76577;DHT22;65441;44.748;37.600;2023-02-12T08:20:14;5.78;52.64
76577;DHT22;65441;44.748;37.600;2023-02-12T08:22:43;5.78;52.04
76577;DHT22;65441;44.748;37.600;2023-02-12T08:25:14;5.85;51.28
76577;DHT22;65441;44.748;37.600;2023-02-12T08:27:45;5.93;52.56
76577;DHT22;65441;44.748;37.600;2023-02-12T08:30:15;5.85;49.51
76577;DHT22;65441;44.748;37.600;2023-02-12T08:32:50;5.94;51.46
76577;DHT22;65441;44.748;37.600;2023-02-12T08:35:18;5.89;49.60
76577;DHT22;65441;44.748;37.600;2023-02-12T08:37:49;5.80;49.96
76577;DHT22;65441;44.748;37.600;2023-02-12T08:40:20;5.91;51.76
76577;DHT22;65441;44.748;37.600;2023-02-12T08:42:54;5.94;50.78
76577;DHT22;65441;44.748;37.600;2023-02-12T08:45:23;5.95;52.00
76577;DHT22;65441;44.748;37.600;2023-02-12T08:47:58;5.91;52.59
76577;DHT22;65441;44.748;37.600;2023-02-12T08:50:32;5.82;53.23
76577;DHT22;65441;44.748;37.600;2023-02-12T08:53:11;5.71;53.42
76577;DHT22;65441;44.748;37.600;2023-02-12T08:55:49;5.70;54.48
76577;DHT22;65441;44.748;37.600;2023-02-12T08:58:18;5.68;55.16
76577;DHT22;65441;44.748;37.600;2023-02-12T09:00:49;5.63;55.34
76577;DHT22;65441;44.748;37.600;2023-02-12T09:03:20;5.60;56.82
76577;DHT22;65441;44.748;37.600;2023-02-12T09:05:50;5.66;57.33
76577;DHT22;65441;44.748;37.600;2023-02-12T09:08:22;5.66;57.79
76577;DHT22;65441;44.748;37.600;2023-02-12T09:10:51;5.71;58.66
76577;DHT22;65441;44.748;37.600;2023-02-12T09:13:23;5.70;57.90
76577;DHT22;65441;44.748;37.600;2023-02-12T09:15:54;5.66;58.77
76577;DHT22;65441;44.748;37.600;2023-02-12T09:18:24;5.68;59.11
76577;DHT22;65441;44.748;37.600;2023-02-12T09:20:53;5.77;57.73
76577;DHT22;65441;44.748;37.600;2023-02-12T09:23:22;5.99;57.92
76577;DHT22;65441;44.748;37.600;2023-02-12T09:25:52;6.17;56.36
76577;DHT22;65441;44.748;37.600;2023-02-12T09:28:22;6.10;56.38
76577;DHT22;65441;44.748;37.600;2023-02-12T09:30:51;6.13;57.71
76577;DHT22;65441;44.748;37.600;2023-02-12T09:33:20;6.22;57.00
76577;DHT22;65441;44.748;37.600;2023-02-12T09:35:59;6.06;57.87
76577;DHT22;65441;44.748;37.600;2023-02-12T09:38:50;5.99;57.77
76577;DHT22;65441;44.748;37.600;2023-02-12T09:44:24;5.91;58.12
76577;DHT22;65441;44.748;37.600;2023-02-12T09:46:58;5.93;56.83
76577;DHT22;65441;44.748;37.600;2023-02-12T09:49:54;5.83;55.08
76577;DHT22;65441;44.748;37.600;2023-02-12T09:52:28;5.80;56.49
76577;DHT22;65441;44.748;37.600;2023-02-12T09:54:58;5.74;57.71
76577;DHT22;65441;44.748;37.600;2023-02-12T09:57:30;5.70;57.13
76577;DHT22;65441;44.748;37.600;2023-02-12T10:00:05;5.70;56.58
76577;DHT22;65441;44.748;37.600;2023-02-12T10:02:38;5.72;56.43
76577;DHT22;65441;44.748;37.600;2023-02-12T10:05:15;5.75;57.47
76577;DHT22;65441;44.748;37.600;2023-02-12T10:08:07;5.71;58.26
76577;DHT22;65441;44.748;37.600;2023-02-12T10:10:54;5.59;57.13
76577;DHT22;65441;44.748;37.600;2023-02-12T10:13:40;5.66;57.08
76577;DHT22;65441;44.748;37.600;2023-02-12T10:16:30;5.79;56.83
76577;DHT22;65441;44.748;37.600;2023-02-12T10:19:22;5.93;56.10
76577;DHT22;65441;44.748;37.600;2023-02-12T10:22:04;5.91;55.80
76577;DHT22;65441;44.748;37.600;2023-02-12T10:24:55;5.89;54.52
76577;DHT22;65441;44.748;37.600;2023-02-12T10:27:35;5.95;53.23
76577;DHT22;65441;44.748;37.600;2023-02-12T10:30:17;6.02;52.69
76577;DHT22;65441;44.748;37.600;2023-02-12T10:32:53;6.16;53.80
76577;DHT22;65441;44.748;37.600;2023-02-12T10:35:25;6.28;52.50
76577;DHT22;65441;44.748;37.600;2023-02-12T10:37:57;6.42;52.78
76577;DHT22;65441;44.748;37.600;2023-02-12T10:40:32;6.58;51.88
76577;DHT22;65441;44.748;37.600;2023-02-12T10:43:05;6.55;51.60
76577;DHT22;65441;44.748;37.600;2023-02-12T10:45:44;6.51;52.14
76577;DHT22;65441;44.748;37.600;2023-02-12T10:48:16;6.42;51.92
76577;DHT22;65441;44.748;37.600;2023-02-12T10:51:19;6.23;52.89
76577;DHT22;65441;44.748;37.600;2023-02-12T10:53:54;6.26;53.19
76577;DHT22;65441;44.748;37.600;2023-02-12T10:56:25;6.30;53.72
76577;DHT22;65441;44.748;37.600;2023-02-12T10:58:56;6.31;53.32
76577;DHT22;65441;44.748;37.600;2023-02-12T11:01:30;6.42;54.24
76577;DHT22;65441;44.748;37.600;2023-02-12T11:04:19;6.35;53.84
76577;DHT22;65441;44.748;37.600;2023-02-12T11:06:58;6.25;53.36
76577;DHT22;65441;44.748;37.600;2023-02-12T11:09:29;6.16;54.10
76577;DHT22;65441;44.748;37.600;2023-02-12T11:12:00;6.15;54.29
76577;DHT22;65441;44.748;37.600;2023-02-12T11:14:29;6.12;55.33
76577;DHT22;65441;44.748;37.600;2023-02-12T11:16:59;6.11;54.55
76577;DHT22;65441;44.748;37.600;2023-02-12T11:19:29;6.10;54.77
76577;DHT22;65441;44.748;37.600;2023-02-12T11:22:06;6.12;55.53
76577;DHT22;65441;44.748;37.600;2023-02-12T11:24:38;6.09;54.93
76577;DHT22;65441;44.748;37.600;2023-02-12T11:27:23;6.02;55.24
76577;DHT22;65441;44.748;37.600;2023-02-12T11:30:14;5.93;55.42
76577;DHT22;65441;44.748;37.600;2023-02-12T11:32:44;5.93;56.58
76577;DHT22;65441;44.748;37.600;2023-02-12T11:35:18;5.84;56.58
76577;DHT22;65441;44.748;37.600;2023-02-12T11:37:56;5.74;56.72
76577;DHT22;65441;44.748;37.600;2023-02-12T11:40:30;5.70;56.53
76577;DHT22;65441;44.748;37.600;2023-02-12T11:43:06;5.70;57.34
76577;DHT22;65441;44.748;37.600;2023-02-12T11:45:43;5.67;57.64
76577;DHT22;65441;44.748;37.600;2023-02-12T11:48:18;5.61;59.18
76577;DHT22;65441;44.748;37.600;2023-02-12T11:50:52;5.57;60.10
76577;DHT22;65441;44.748;37.600;2023-02-12T11:53:24;5.55;60.27
76577;DHT22;65441;44.748;37.600;2023-02-12T11:55:57;5.48;61.01
76577;DHT22;65441;44.748;37.600;2023-02-12T11:58:32;5.51;60.87
76577;DHT22;65441;44.748;37.600;2023-02-12T12:01:10;5.56;60.67
76577;DHT22;65441;44.748;37.600;2023-02-12T12:03:45;5.55;61.05
76577;DHT22;65441;44.748;37.600;2023-02-12T12:06:26;5.63;61.20
76577;DHT22;65441;44.748;37.600;2023-02-12T12:09:02;5.64;61.41
76577;DHT22;65441;44.748;37.600;2023-02-12T12:11:40;5.53;62.03
76577;DHT22;65441;44.748;37.600;2023-02-12T12:14:17;5.51;62.82
76577;DHT22;65441;44.748;37.600;2023-02-12T12:16:53;5.46;63.34
76577;DHT22;65441;44.748;37.600;2023-02-12T12:19:44;5.42;62.95
76577;DHT22;65441;44.748;37.600;2023-02-12T12:22:39;5.45;63.21
76577;DHT22;65441;44.748;37.600;2023-02-12T12:25:17;5.38;64.06
76577;DHT22;65441;44.748;37.600;2023-02-12T12:27:59;5.38;64.40
76577;DHT22;65441;44.748;37.600;2023-02-12T12:30:50;5.33;64.71
76577;DHT22;65441;44.748;37.600;2023-02-12T12:33:29;5.34;65.96
76577;DHT22;65441;44.748;37.600;2023-02-12T12:38:56;5.33;65.37
76577;DHT22;65441;44.748;37.600;2023-02-12T12:41:40;5.37;65.79
76577;DHT22;65441;44.748;37.600;2023-02-12T12:44:25;5.40;66.14
76577;DHT22;65441;44.748;37.600;2023-02-12T12:47:13;5.38;65.36
76577;DHT22;65441;44.748;37.600;2023-02-12T12:50:12;5.43;64.52
76577;DHT22;65441;44.748;37.600;2023-02-12T12:52:59;5.47;65.27
76577;DHT22;65441;44.748;37.600;2023-02-12T12:56:04;5.48;64.64
76577;DHT22;65441;44.748;37.600;2023-02-12T12:58:47;5.50;65.27
76577;DHT22;65441;44.748;37.600;2023-02-12T13:01:52;5.52;65.05
76577;DHT22;65441;44.748;37.600;2023-02-12T13:04:41;5.46;65.21
76577;DHT22;65441;44.748;37.600;2023-02-12T13:07:31;5.37;66.06
76577;DHT22;65441;44.748;37.600;2023-02-12T13:10:16;5.35;66.47
76577;DHT22;65441;44.748;37.600;2023-02-12T13:13:05;5.30;68.52
76577;DHT22;65441;44.748;37.600;2023-02-12T13:15:42;5.22;68.78
76577;DHT22;65441;44.748;37.600;2023-02-12T13:18:22;5.18;69.68
76577;DHT22;65441;44.748;37.600;2023-02-12T13:21:05;5.24;69.54
76577;DHT22;65441;44.748;37.600;2023-02-12T13:23:42;5.16;70.59
76577;DHT22;65441;44.748;37.600;2023-02-12T13:26:20;5.13;71.47
76577;DHT22;65441;44.748;37.600;2023-02-12T13:28:53;5.02;72.16
76577;DHT22;65441;44.748;37.600;2023-02-12T13:31:29;4.94;73.28
76577;DHT22;65441;44.748;37.600;2023-02-12T13:34:03;4.88;73.44
76577;DHT22;65441;44.748;37.600;2023-02-12T13:36:36;4.92;74.37
76577;DHT22;65441;44.748;37.600;2023-02-12T13:39:12;4.83;75.28
76577;DHT22;65441;44.748;37.600;2023-02-12T13:41:47;4.79;73.55
76577;DHT22;65441;44.748;37.600;2023-02-12T13:44:27;4.79;75.05
76577;DHT22;65441;44.748;37.600;2023-02-12T13:47:08;4.76;74.00
76577;DHT22;65441;44.748;37.600;2023-02-12T13:49:47;4.75;72.95
76577;DHT22;65441;44.748;37.600;2023-02-12T13:52:29;4.79;73.68
76577;DHT22;65441;44.748;37.600;2023-02-12T13:55:19;4.74;74.24
76577;DHT22;65441;44.748;37.600;2023-02-12T14:01:00;4.56;77.91
76577;DHT22;65441;44.748;37.600;2023-02-12T14:03:31;4.46;77.76
76577;DHT22;65441;44.748;37.600;2023-02-12T14:06:12;4.44;79.13
76577;DHT22;65441;44.748;37.600;2023-02-12T14:08:47;4.43;79.97
76577;DHT22;65441;44.748;37.600;2023-02-12T14:11:20;4.34;80.63
76577;DHT22;65441;44.748;37.600;2023-02-12T14:13:56;4.18;82.46
76577;DHT22;65441;44.748;37.600;2023-02-12T14:16:39;4.13;83.27
76577;DHT22;65441;44.748;37.600;2023-02-12T14:19:53;3.97;85.22
76577;DHT22;65441;44.748;37.600;2023-02-12T14:23:19;3.90;85.29
76577;DHT22;65441;44.748;37.600;2023-02-12T14:26:05;3.91;86.39
76577;DHT22;65441;44.748;37.600;2023-02-12T14:28:52;3.88;86.13
76577;DHT22;65441;44.748;37.600;2023-02-12T14:31:34;3.87;86.23
76577;DHT22;65441;44.748;37.600;2023-02-12T14:37:40;3.49;85.78
76577;DHT22;65441;44.748;37.600;2023-02-12T14:40:35;3.46;86.93
76577;DHT22;65441;44.748;37.600;2023-02-12T14:43:31;3.41;86.53
76577;DHT22;65441;44.748;37.600;2023-02-12T14:46:44;3.39;86.18
76577;DHT22;65441;44.748;37.600;2023-02-12T14:49:26;3.36;85.80
76577;DHT22;65441;44.748;37.600;2023-02-12T14:52:02;3.43;85.50
76577;DHT22;65441;44.748;37.600;2023-02-12T14:54:35;3.46;85.21
76577;DHT22;65441;44.748;37.600;2023-02-12T14:57:23;3.44;84.85
76577;DHT22;65441;44.748;37.600;2023-02-12T15:00:01;3.55;84.46
76577;DHT22;65441;44.748;37.600;2023-02-12T15:02:32;3.49;83.97
76577;DHT22;65441;44.748;37.600;2023-02-12T15:05:11;3.31;84.64
76577;DHT22;65441;44.748;37.600;2023-02-12T15:07:54;3.04;85.51
76577;DHT22;65441;44.748;37.600;2023-02-12T15:10:31;3.10;86.39
76577;DHT22;65441;44.748;37.600;2023-02-12T15:13:14;3.12;85.77
76577;DHT22;65441;44.748;37.600;2023-02-12T15:15:52;3.00;86.26
76577;DHT22;65441;44.748;37.600;2023-02-12T15:18:28;3.12;86.99
76577;DHT22;65441;44.748;37.600;2023-02-12T15:21:04;3.34;84.33
76577;DHT22;65441;44.748;37.600;2023-02-12T15:23:40;3.55;81.51
76577;DHT22;65441;44.748;37.600;2023-02-12T15:26:16;3.55;83.83
76577;DHT22;65441;44.748;37.600;2023-02-12T15:28:48;3.52;83.29
76577;DHT22;65441;44.748;37.600;2023-02-12T15:31:25;3.65;83.71
76577;DHT22;65441;44.748;37.600;2023-02-12T15:33:57;3.61;83.81
76577;DHT22;65441;44.748;37.600;2023-02-12T15:36:43;3.67;83.87
76577;DHT22;65441;44.748;37.600;2023-02-12T15:39:19;3.70;83.84
76577;DHT22;65441;44.748;37.600;2023-02-12T15:41:51;3.68;84.28
76577;DHT22;65441;44.748;37.600;2023-02-12T15:44:33;3.50;83.65
76577;DHT22;65441;44.748;37.600;2023-02-12T15:47:28;3.69;82.59
76577;DHT22;65441;44.748;37.600;2023-02-12T15:50:11;3.67;83.23
76577;DHT22;65441;44.748;37.600;2023-02-12T15:52:43;3.71;82.39
76577;DHT22;65441;44.748;37.600;2023-02-12T15:55:16;3.72;82.46
76577;DHT22;65441;44.748;37.600;2023-02-12T15:58:19;3.72;83.66
76577;DHT22;65441;44.748;37.600;2023-02-12T16:01:12;3.61;83.19
76577;DHT22;65441;44.748;37.600;2023-02-12T16:03:48;3.39;83.49
76577;DHT22;65441;44.748;37.600;2023-02-12T16:06:22;3.36;84.35
76577;DHT22;65441;44.748;37.600;2023-02-12T16:08:59;3.23;84.04
76577;DHT22;65441;44.748;37.600;2023-02-12T16:11:32;3.16;84.97
76577;DHT22;65441;44.748;37.600;2023-02-12T16:14:21;3.12;84.32
76577;DHT22;65441;44.748;37.600;2023-02-12T16:17:00;3.14;84.60
76577;DHT22;65441;44.748;37.600;2023-02-12T16:19:34;3.11;84.23
76577;DHT22;65441;44.748;37.600;2023-02-12T16:22:15;3.08;84.82
76577;DHT22;65441;44.748;37.600;2023-02-12T16:24:53;3.12;83.54
76577;DHT22;65441;44.748;37.600;2023-02-12T16:27:25;2.91;85.28
76577;DHT22;65441;44.748;37.600;2023-02-12T16:29:57;2.91;84.36
76577;DHT22;65441;44.748;37.600;2023-02-12T16:32:34;2.79;85.28
76577;DHT22;65441;44.748;37.600;2023-02-12T16:35:22;2.71;85.74
76577;DHT22;65441;44.748;37.600;2023-02-12T16:38:03;2.64;85.87
76577;DHT22;65441;44.748;37.600;2023-02-12T16:41:14;2.39;87.13
76577;DHT22;65441;44.748;37.600;2023-02-12T16:43:49;2.34;86.75
76577;DHT22;65441;44.748;37.600;2023-02-12T16:46:24;2.16;87.22
76577;DHT22;65441;44.748;37.600;2023-02-12T16:48:59;2.10;87.71
76577;DHT22;65441;44.748;37.600;2023-02-12T16:51:38;2.01;87.90